Swift Ace — C6XB8 — position and weather

sailwx.info

Track history (hours):
 
Tides and Currents Weather Stations Pressure Air Temp Water Temp Dewpoint Dewpoint Depression Visibility Wind Speed Wind Dir Waves Ship Positions

Swift Ace

Last reported at 2017-Aug-03 07:08 UTC. Time now 2017-Aug-17 21:34 UTC.
Position N 19°20' W 095°33'.
Warning: this ship's position is 14 days out of date.

Length 200 m; draft 8.6 m.

Type: Cargo ship. MMSI: 310968322.

Date/timePositionNaut miles runAvg speedWind from/ knotsBaromVisibWave heightAir tempDewpointWater temp
2017-Aug-03 07:08N 19°20' W 095°33'319.5
2017-Aug-03 07:00N 19°19' W 095°35'919.3
2017-Aug-03 06:30N 19°13' W 095°43'918.2
2017-Aug-03 06:00N 19°12' W 095°53'816.8
2017-Aug-03 05:30N 19°11' W 096°02'5 9.4
2017-Aug-03 05:00N 19°12' W 096°06'2 3.0
2017-Aug-03 04:26N 19°13' W 096°08'0 0.0
2017-Aug-03 03:59N 19°13' W 096°08'0 0.0
2017-Aug-03 03:28N 19°13' W 096°08'0 0.0
2017-Aug-03 02:58N 19°13' W 096°08'0 0.0
2017-Aug-03 02:28N 19°13' W 096°08'0 0.0
2017-Aug-03 01:58N 19°13' W 096°08'0 0.0
2017-Aug-03 01:28N 19°13' W 096°08'0 0.0
2017-Aug-03 00:58N 19°13' W 096°08'0 0.0
2017-Aug-03 00:26N 19°13' W 096°08'0 0.0
2017-Aug-02 23:58N 19°13' W 096°08'0 0.0
2017-Aug-02 23:29N 19°13' W 096°08'0 0.0
2017-Aug-02 22:59N 19°13' W 096°08'0 0.0
2017-Aug-02 22:28N 19°13' W 096°08'0 0.0
2017-Aug-02 21:59N 19°13' W 096°08'0 0.0
2017-Aug-02 21:28N 19°13' W 096°08'0 0.0
2017-Aug-02 20:58N 19°13' W 096°08'0 0.0
2017-Aug-02 20:29N 19°13' W 096°08'0 0.0
2017-Aug-02 19:59N 19°13' W 096°08'0 0.0
2017-Aug-02 19:29N 19°13' W 096°08'0 0.0
2017-Aug-02 18:58N 19°13' W 096°08'0 0.0
2017-Aug-02 18:29N 19°13' W 096°08'0 0.0
2017-Aug-02 17:58N 19°13' W 096°08'0 0.0
2017-Aug-02 17:23N 19°13' W 096°08'0 0.0
2017-Aug-02 16:58N 19°13' W 096°08'0 0.0
2017-Aug-02 16:29N 19°13' W 096°08'0 0.0
2017-Aug-02 15:59N 19°13' W 096°08'0 0.0
2017-Aug-02 15:28N 19°13' W 096°08'0 0.0
2017-Aug-02 14:59N 19°13' W 096°08'0 0.0
2017-Aug-02 13:28N 19°13' W 096°08'0 0.0
2017-Aug-02 12:59N 19°13' W 096°08'0 0.0
2017-Aug-02 12:28N 19°13' W 096°08'0 0.0
2017-Aug-02 11:59N 19°13' W 096°08'0 0.9
2017-Aug-02 11:30N 19°12' W 096°08'3 5.8
2017-Aug-02 11:00N 19°12' W 096°05'3 5.4
2017-Aug-02 10:27N 19°10' W 096°03'0 0.1
2017-Aug-02 09:57N 19°10' W 096°03'0 0.0
2017-Aug-02 09:27N 19°10' W 096°03'0 0.0
2017-Aug-02 08:51N 19°10' W 096°03'0 0.0
2017-Aug-02 08:27N 19°10' W 096°03'0 0.0
2017-Aug-02 07:57N 19°10' W 096°03'0 0.0
2017-Aug-02 07:27N 19°10' W 096°03'0 0.0
2017-Aug-02 06:57N 19°10' W 096°03'0 0.0
2017-Aug-02 06:27N 19°10' W 096°03'0 0.0
2017-Aug-02 05:57N 19°10' W 096°03'0 0.0
2017-Aug-02 05:21N 19°10' W 096°03'0 0.0
2017-Aug-02 04:51N 19°10' W 096°03'0 0.0
2017-Aug-02 04:21N 19°10' W 096°03'0 0.0
2017-Aug-02 03:57N 19°10' W 096°03'0 0.0
2017-Aug-02 03:27N 19°10' W 096°03'0 0.0
2017-Aug-02 02:57N 19°10' W 096°03'0 0.0
2017-Aug-02 02:24N 19°10' W 096°03'0 0.0
2017-Aug-02 01:57N 19°10' W 096°03'  
2017-Jul-29 09:04N 30°54' W 080°54'818.3
2017-Jul-29 08:39N 30°57' W 081°03'27 1.4
2017-Jul-28 13:47N 31°08' W 081°31'2 5.9
2017-Jul-28 13:25N 31°07' W 081°29'510.2
2017-Jul-28 12:57N 31°08' W 081°23'614.2
2017-Jul-28 12:30N 31°04' W 081°17'611.1
2017-Jul-28 12:00N 31°02' W 081°11'611.2
2017-Jul-28 11:28N 31°02' W 081°04'43515.5
2017-Jul-27 07:21N 36°49' W 075°46'618.4
2017-Jul-27 07:00N 36°52' W 075°53'713.7
2017-Jul-27 06:30N 36°56' W 075°60'613.1
2017-Jul-27 06:00N 37°02' W 076°04'1815.6
2017-Jul-27 04:51N 37°20' W 076°05'1616.6
2017-Jul-27 03:54N 37°36' W 076°04'3718.1
2017-Jul-27 01:50N 38°12' W 076°14'2718.3
2017-Jul-27 00:20N 38°38' W 076°25'618.4
2017-Jul-27 00:00N 38°44' W 076°26'918.3
2017-Jul-26 23:30N 38°53' W 076°24'816.1
2017-Jul-26 23:00N 39°01' W 076°23'714.8
2017-Jul-26 22:30N 39°09' W 076°24'612.8
2017-Jul-26 22:00N 39°12' W 076°31'3 6.2
2017-Jul-26 21:31N 39°15' W 076°34'0 0.1
2017-Jul-26 20:59N 39°14' W 076°34'0 0.0
2017-Jul-26 20:29N 39°14' W 076°34'0 0.0
2017-Jul-26 19:59N 39°14' W 076°34'0 0.0
2017-Jul-26 19:29N 39°14' W 076°34'0 0.0
2017-Jul-26 18:59N 39°14' W 076°34'0 0.0
2017-Jul-26 18:29N 39°14' W 076°34'0 0.0
2017-Jul-26 17:59N 39°14' W 076°34'0 0.0
2017-Jul-26 17:29N 39°14' W 076°34'0 0.0
2017-Jul-26 16:59N 39°14' W 076°34'0 0.0
2017-Jul-26 16:29N 39°14' W 076°34'0 0.0
2017-Jul-26 15:59N 39°14' W 076°34'0 0.0
2017-Jul-26 15:29N 39°14' W 076°34'0 0.0
2017-Jul-26 14:59N 39°14' W 076°34'0 0.0
2017-Jul-26 13:59N 39°14' W 076°34'0 0.0
2017-Jul-26 13:29N 39°14' W 076°34'0 0.0
2017-Jul-26 12:59N 39°14' W 076°34'0 0.0
2017-Jul-26 12:29N 39°14' W 076°34'0 0.0
2017-Jul-26 11:59N 39°14' W 076°34'0 0.0
2017-Jul-26 11:29N 39°14' W 076°34'0 0.0
2017-Jul-26 10:59N 39°14' W 076°34'0 0.0
2017-Jul-26 10:29N 39°14' W 076°34'0 0.0
2017-Jul-26 09:59N 39°14' W 076°34'0 0.0
2017-Jul-26 09:29N 39°14' W 076°34'0 0.0
2017-Jul-26 08:59N 39°14' W 076°34'0 0.0
2017-Jul-26 08:26N 39°14' W 076°34'0 0.0
2017-Jul-26 07:59N 39°14' W 076°34'0 0.0
2017-Jul-26 07:29N 39°14' W 076°34'0 0.0
2017-Jul-26 06:59N 39°14' W 076°34'0 0.0
2017-Jul-26 06:29N 39°14' W 076°34'0 0.0
2017-Jul-26 05:59N 39°14' W 076°34'0 0.0
2017-Jul-26 05:29N 39°14' W 076°34'0 0.0
2017-Jul-26 04:59N 39°14' W 076°34'0 0.0
2017-Jul-26 04:29N 39°14' W 076°34'0 0.0
2017-Jul-26 03:59N 39°14' W 076°34'0 0.0
2017-Jul-26 03:29N 39°14' W 076°34'0 0.0
2017-Jul-26 02:59N 39°14' W 076°34'0 0.0
2017-Jul-26 02:29N 39°14' W 076°34'0 0.0
2017-Jul-26 01:59N 39°14' W 076°34'0 0.0
2017-Jul-26 01:29N 39°14' W 076°34'0 0.0
2017-Jul-26 00:59N 39°14' W 076°34'0 0.0
2017-Jul-26 00:29N 39°14' W 076°34'0 0.0
2017-Jul-25 23:59N 39°14' W 076°34'0 0.0
2017-Jul-25 23:29N 39°14' W 076°34'0 0.0
2017-Jul-25 22:59N 39°14' W 076°34'0 0.0
2017-Jul-25 22:29N 39°14' W 076°34'0 0.0
2017-Jul-25 21:59N 39°14' W 076°34'0 0.0
2017-Jul-25 21:29N 39°14' W 076°34'0 0.0
2017-Jul-25 20:59N 39°14' W 076°34'0 0.0
2017-Jul-25 20:29N 39°14' W 076°34'0 0.0
2017-Jul-25 19:59N 39°14' W 076°34'0 0.0
2017-Jul-25 19:30N 39°14' W 076°34'1 2.3
2017-Jul-25 19:00N 39°14' W 076°33'1 1.9
2017-Jul-25 18:29N 39°14' W 076°32'0 0.0
2017-Jul-25 17:59N 39°14' W 076°32'0 0.0
2017-Jul-25 17:29N 39°14' W 076°32'0 0.0
2017-Jul-25 16:59N 39°14' W 076°32'0 0.0
2017-Jul-25 16:29N 39°14' W 076°32'0 0.0
2017-Jul-25 15:59N 39°14' W 076°32'0 0.0
2017-Jul-25 15:29N 39°14' W 076°32'0 0.0
2017-Jul-25 14:59N 39°14' W 076°32'0 0.0
2017-Jul-25 13:59N 39°14' W 076°32'0 0.0
2017-Jul-25 13:29N 39°14' W 076°32'0 0.0
2017-Jul-25 12:59N 39°14' W 076°32'0 0.0
2017-Jul-25 12:29N 39°14' W 076°32'0 0.0
2017-Jul-25 11:59N 39°14' W 076°32'0 0.0
2017-Jul-25 11:29N 39°14' W 076°32'0 0.0
2017-Jul-25 10:59N 39°14' W 076°32'0 0.0
2017-Jul-25 10:29N 39°14' W 076°32'0 0.0
2017-Jul-25 09:59N 39°14' W 076°32'0 0.0
2017-Jul-25 09:29N 39°14' W 076°32'0 0.0
2017-Jul-25 08:59N 39°14' W 076°32'0 0.0
2017-Jul-25 08:29N 39°14' W 076°32'0 0.0
2017-Jul-25 07:59N 39°14' W 076°32'0 0.0
2017-Jul-25 07:29N 39°14' W 076°32'0 0.0
2017-Jul-25 06:59N 39°14' W 076°32'0 0.0
2017-Jul-25 06:29N 39°14' W 076°32'0 0.0
2017-Jul-25 05:59N 39°14' W 076°32'0 0.0
2017-Jul-25 05:29N 39°14' W 076°32'0 0.0
2017-Jul-25 04:56N 39°14' W 076°32'0 0.0
2017-Jul-25 04:29N 39°14' W 076°32'0 0.0
2017-Jul-25 03:59N 39°14' W 076°32'0 0.0
2017-Jul-25 03:29N 39°14' W 076°32'0 0.9
2017-Jul-25 03:00N 39°14' W 076°32'2 3.7
2017-Jul-25 02:30N 39°13' W 076°31'510.2
2017-Jul-25 02:01N 39°10' W 076°25'713.2
2017-Jul-25 01:31N 39°04' W 076°23'815.9
2017-Jul-25 01:00N 38°56' W 076°23'1019.2
2017-Jul-25 00:30N 38°46' W 076°26'3518.5
2017-Jul-24 22:36N 38°12' W 076°15'819.0
2017-Jul-24 22:10N 38°04' W 076°13'4617.0
2017-Jul-24 19:29N 37°18' W 076°06'1017.0
2017-Jul-24 18:54N 37°09' W 076°09'717.0
2017-Jul-24 18:30N 37°03' W 076°05'815.0
2017-Jul-24 18:00N 36°57' W 075°59'510.6
2017-Jul-24 17:31N 36°54' W 075°53'811.5
2017-Jul-24 16:50N 36°50' W 075°45'  
Track history (hours):
 
Tides and Currents Weather Stations Pressure Air Temp Water Temp Dewpoint Dewpoint Depression Visibility Wind Speed Wind Dir Waves Ship Positions

Swift Ace

Last reported at 2017-Aug-03 07:08 UTC. Time now 2017-Aug-17 21:34 UTC.
Position N 19°20' W 095°33'.
Warning: this ship's position is 14 days out of date.

Length 200 m; draft 8.6 m.

Type: Cargo ship. MMSI: 310968322.

Date/timePositionNaut miles runAvg speedWind from/ knotsBaromVisibWave heightAir tempDewpointWater temp
2017-Aug-03 07:08N 19°20' W 095°33'319.5
2017-Aug-03 07:00N 19°19' W 095°35'919.3
2017-Aug-03 06:30N 19°13' W 095°43'918.2
2017-Aug-03 06:00N 19°12' W 095°53'816.8
2017-Aug-03 05:30N 19°11' W 096°02'5 9.4
2017-Aug-03 05:00N 19°12' W 096°06'2 3.0
2017-Aug-03 04:26N 19°13' W 096°08'0 0.0
2017-Aug-03 03:59N 19°13' W 096°08'0 0.0
2017-Aug-03 03:28N 19°13' W 096°08'0 0.0
2017-Aug-03 02:58N 19°13' W 096°08'0 0.0
2017-Aug-03 02:28N 19°13' W 096°08'0 0.0
2017-Aug-03 01:58N 19°13' W 096°08'0 0.0
2017-Aug-03 01:28N 19°13' W 096°08'0 0.0
2017-Aug-03 00:58N 19°13' W 096°08'0 0.0
2017-Aug-03 00:26N 19°13' W 096°08'0 0.0
2017-Aug-02 23:58N 19°13' W 096°08'0 0.0
2017-Aug-02 23:29N 19°13' W 096°08'0 0.0
2017-Aug-02 22:59N 19°13' W 096°08'0 0.0
2017-Aug-02 22:28N 19°13' W 096°08'0 0.0
2017-Aug-02 21:59N 19°13' W 096°08'0 0.0
2017-Aug-02 21:28N 19°13' W 096°08'0 0.0
2017-Aug-02 20:58N 19°13' W 096°08'0 0.0
2017-Aug-02 20:29N 19°13' W 096°08'0 0.0
2017-Aug-02 19:59N 19°13' W 096°08'0 0.0
2017-Aug-02 19:29N 19°13' W 096°08'0 0.0
2017-Aug-02 18:58N 19°13' W 096°08'0 0.0
2017-Aug-02 18:29N 19°13' W 096°08'0 0.0
2017-Aug-02 17:58N 19°13' W 096°08'0 0.0
2017-Aug-02 17:23N 19°13' W 096°08'0 0.0
2017-Aug-02 16:58N 19°13' W 096°08'0 0.0
2017-Aug-02 16:29N 19°13' W 096°08'0 0.0
2017-Aug-02 15:59N 19°13' W 096°08'0 0.0
2017-Aug-02 15:28N 19°13' W 096°08'0 0.0
2017-Aug-02 14:59N 19°13' W 096°08'0 0.0
2017-Aug-02 13:28N 19°13' W 096°08'0 0.0
2017-Aug-02 12:59N 19°13' W 096°08'0 0.0
2017-Aug-02 12:28N 19°13' W 096°08'0 0.0
2017-Aug-02 11:59N 19°13' W 096°08'0 0.9
2017-Aug-02 11:30N 19°12' W 096°08'3 5.8
2017-Aug-02 11:00N 19°12' W 096°05'3 5.4
2017-Aug-02 10:27N 19°10' W 096°03'0 0.1
2017-Aug-02 09:57N 19°10' W 096°03'0 0.0
2017-Aug-02 09:27N 19°10' W 096°03'0 0.0
2017-Aug-02 08:51N 19°10' W 096°03'0 0.0
2017-Aug-02 08:27N 19°10' W 096°03'0 0.0
2017-Aug-02 07:57N 19°10' W 096°03'0 0.0
2017-Aug-02 07:27N 19°10' W 096°03'0 0.0
2017-Aug-02 06:57N 19°10' W 096°03'0 0.0
2017-Aug-02 06:27N 19°10' W 096°03'0 0.0
2017-Aug-02 05:57N 19°10' W 096°03'0 0.0
2017-Aug-02 05:21N 19°10' W 096°03'0 0.0
2017-Aug-02 04:51N 19°10' W 096°03'0 0.0
2017-Aug-02 04:21N 19°10' W 096°03'0 0.0
2017-Aug-02 03:57N 19°10' W 096°03'0 0.0
2017-Aug-02 03:27N 19°10' W 096°03'0 0.0
2017-Aug-02 02:57N 19°10' W 096°03'0 0.0
2017-Aug-02 02:24N 19°10' W 096°03'0 0.0
2017-Aug-02 01:57N 19°10' W 096°03'  
2017-Jul-29 09:04N 30°54' W 080°54'818.3
2017-Jul-29 08:39N 30°57' W 081°03'27 1.4
2017-Jul-28 13:47N 31°08' W 081°31'2 5.9
2017-Jul-28 13:25N 31°07' W 081°29'510.2
2017-Jul-28 12:57N 31°08' W 081°23'614.2
2017-Jul-28 12:30N 31°04' W 081°17'611.1
2017-Jul-28 12:00N 31°02' W 081°11'611.2
2017-Jul-28 11:28N 31°02' W 081°04'43515.5
2017-Jul-27 07:21N 36°49' W 075°46'618.4
2017-Jul-27 07:00N 36°52' W 075°53'713.7
2017-Jul-27 06:30N 36°56' W 075°60'613.1
2017-Jul-27 06:00N 37°02' W 076°04'1815.6
2017-Jul-27 04:51N 37°20' W 076°05'1616.6
2017-Jul-27 03:54N 37°36' W 076°04'3718.1
2017-Jul-27 01:50N 38°12' W 076°14'2718.3
2017-Jul-27 00:20N 38°38' W 076°25'618.4
2017-Jul-27 00:00N 38°44' W 076°26'918.3
2017-Jul-26 23:30N 38°53' W 076°24'816.1
2017-Jul-26 23:00N 39°01' W 076°23'714.8
2017-Jul-26 22:30N 39°09' W 076°24'612.8
2017-Jul-26 22:00N 39°12' W 076°31'3 6.2
2017-Jul-26 21:31N 39°15' W 076°34'0 0.1
2017-Jul-26 20:59N 39°14' W 076°34'0 0.0
2017-Jul-26 20:29N 39°14' W 076°34'0 0.0
2017-Jul-26 19:59N 39°14' W 076°34'0 0.0
2017-Jul-26 19:29N 39°14' W 076°34'0 0.0
2017-Jul-26 18:59N 39°14' W 076°34'0 0.0
2017-Jul-26 18:29N 39°14' W 076°34'0 0.0
2017-Jul-26 17:59N 39°14' W 076°34'0 0.0
2017-Jul-26 17:29N 39°14' W 076°34'0 0.0
2017-Jul-26 16:59N 39°14' W 076°34'0 0.0
2017-Jul-26 16:29N 39°14' W 076°34'0 0.0
2017-Jul-26 15:59N 39°14' W 076°34'0 0.0
2017-Jul-26 15:29N 39°14' W 076°34'0 0.0
2017-Jul-26 14:59N 39°14' W 076°34'0 0.0
2017-Jul-26 13:59N 39°14' W 076°34'0 0.0
2017-Jul-26 13:29N 39°14' W 076°34'0 0.0
2017-Jul-26 12:59N 39°14' W 076°34'0 0.0
2017-Jul-26 12:29N 39°14' W 076°34'0 0.0
2017-Jul-26 11:59N 39°14' W 076°34'0 0.0
2017-Jul-26 11:29N 39°14' W 076°34'0 0.0
2017-Jul-26 10:59N 39°14' W 076°34'0 0.0
2017-Jul-26 10:29N 39°14' W 076°34'0 0.0
2017-Jul-26 09:59N 39°14' W 076°34'0 0.0
2017-Jul-26 09:29N 39°14' W 076°34'0 0.0
2017-Jul-26 08:59N 39°14' W 076°34'0 0.0
2017-Jul-26 08:26N 39°14' W 076°34'0 0.0
2017-Jul-26 07:59N 39°14' W 076°34'0 0.0
2017-Jul-26 07:29N 39°14' W 076°34'0 0.0
2017-Jul-26 06:59N 39°14' W 076°34'0 0.0
2017-Jul-26 06:29N 39°14' W 076°34'0 0.0
2017-Jul-26 05:59N 39°14' W 076°34'0 0.0
2017-Jul-26 05:29N 39°14' W 076°34'0 0.0
2017-Jul-26 04:59N 39°14' W 076°34'0 0.0
2017-Jul-26 04:29N 39°14' W 076°34'0 0.0
2017-Jul-26 03:59N 39°14' W 076°34'0 0.0
2017-Jul-26 03:29N 39°14' W 076°34'0 0.0
2017-Jul-26 02:59N 39°14' W 076°34'0 0.0
2017-Jul-26 02:29N 39°14' W 076°34'0 0.0
2017-Jul-26 01:59N 39°14' W 076°34'0 0.0
2017-Jul-26 01:29N 39°14' W 076°34'0 0.0
2017-Jul-26 00:59N 39°14' W 076°34'0 0.0
2017-Jul-26 00:29N 39°14' W 076°34'0 0.0
2017-Jul-25 23:59N 39°14' W 076°34'0 0.0
2017-Jul-25 23:29N 39°14' W 076°34'0 0.0
2017-Jul-25 22:59N 39°14' W 076°34'0 0.0
2017-Jul-25 22:29N 39°14' W 076°34'0 0.0
2017-Jul-25 21:59N 39°14' W 076°34'0 0.0
2017-Jul-25 21:29N 39°14' W 076°34'0 0.0
2017-Jul-25 20:59N 39°14' W 076°34'0 0.0
2017-Jul-25 20:29N 39°14' W 076°34'0 0.0
2017-Jul-25 19:59N 39°14' W 076°34'0 0.0
2017-Jul-25 19:30N 39°14' W 076°34'1 2.3
2017-Jul-25 19:00N 39°14' W 076°33'1 1.9
2017-Jul-25 18:29N 39°14' W 076°32'0 0.0
2017-Jul-25 17:59N 39°14' W 076°32'0 0.0
2017-Jul-25 17:29N 39°14' W 076°32'0 0.0
2017-Jul-25 16:59N 39°14' W 076°32'0 0.0
2017-Jul-25 16:29N 39°14' W 076°32'0 0.0
2017-Jul-25 15:59N 39°14' W 076°32'0 0.0
2017-Jul-25 15:29N 39°14' W 076°32'0 0.0
2017-Jul-25 14:59N 39°14' W 076°32'0 0.0
2017-Jul-25 13:59N 39°14' W 076°32'0 0.0
2017-Jul-25 13:29N 39°14' W 076°32'0 0.0
2017-Jul-25 12:59N 39°14' W 076°32'0 0.0
2017-Jul-25 12:29N 39°14' W 076°32'0 0.0
2017-Jul-25 11:59N 39°14' W 076°32'0 0.0
2017-Jul-25 11:29N 39°14' W 076°32'0 0.0
2017-Jul-25 10:59N 39°14' W 076°32'0 0.0
2017-Jul-25 10:29N 39°14' W 076°32'0 0.0
2017-Jul-25 09:59N 39°14' W 076°32'0 0.0
2017-Jul-25 09:29N 39°14' W 076°32'0 0.0
2017-Jul-25 08:59N 39°14' W 076°32'0 0.0
2017-Jul-25 08:29N 39°14' W 076°32'0 0.0
2017-Jul-25 07:59N 39°14' W 076°32'0 0.0
2017-Jul-25 07:29N 39°14' W 076°32'0 0.0
2017-Jul-25 06:59N 39°14' W 076°32'0 0.0
2017-Jul-25 06:29N 39°14' W 076°32'0 0.0
2017-Jul-25 05:59N 39°14' W 076°32'0 0.0
2017-Jul-25 05:29N 39°14' W 076°32'0 0.0
2017-Jul-25 04:56N 39°14' W 076°32'0 0.0
2017-Jul-25 04:29N 39°14' W 076°32'0 0.0
2017-Jul-25 03:59N 39°14' W 076°32'0 0.0
2017-Jul-25 03:29N 39°14' W 076°32'0 0.9
2017-Jul-25 03:00N 39°14' W 076°32'2 3.7
2017-Jul-25 02:30N 39°13' W 076°31'510.2
2017-Jul-25 02:01N 39°10' W 076°25'713.2
2017-Jul-25 01:31N 39°04' W 076°23'815.9
2017-Jul-25 01:00N 38°56' W 076°23'1019.2
2017-Jul-25 00:30N 38°46' W 076°26'3518.5
2017-Jul-24 22:36N 38°12' W 076°15'819.0
2017-Jul-24 22:10N 38°04' W 076°13'4617.0
2017-Jul-24 19:29N 37°18' W 076°06'1017.0
2017-Jul-24 18:54N 37°09' W 076°09'717.0
2017-Jul-24 18:30N 37°03' W 076°05'815.0
2017-Jul-24 18:00N 36°57' W 075°59'510.6
2017-Jul-24 17:31N 36°54' W 075°53'811.5
2017-Jul-24 16:50N 36°50' W 075°45'  

Dump ship's entire track history